sensor_id;sensor_type;location;lat;lon;timestamp;pressure;altitude;pressure_sealevel;temperature
78225;BMP280;67498;53.650;10.090;2023-07-31T00:00:11;100747.50;;;14.36
78225;BMP280;67498;53.650;10.090;2023-07-31T00:02:37;100738.16;;;14.35
78225;BMP280;67498;53.650;10.090;2023-07-31T00:05:02;100741.72;;;14.41
78225;BMP280;67498;53.650;10.090;2023-07-31T00:07:28;100742.78;;;14.44
78225;BMP280;67498;53.650;10.090;2023-07-31T00:09:53;100733.97;;;14.37
78225;BMP280;67498;53.650;10.090;2023-07-31T00:12:19;100727.84;;;14.40
78225;BMP280;67498;53.650;10.090;2023-07-31T00:14:44;100726.41;;;14.39
78225;BMP280;67498;53.650;10.090;2023-07-31T00:17:10;100725.88;;;14.45
78225;BMP280;67498;53.650;10.090;2023-07-31T00:19:35;100731.84;;;14.45
78225;BMP280;67498;53.650;10.090;2023-07-31T00:22:00;100719.16;;;14.44
78225;BMP280;67498;53.650;10.090;2023-07-31T00:24:26;100727.78;;;14.44
78225;BMP280;67498;53.650;10.090;2023-07-31T00:26:51;100721.78;;;14.44
78225;BMP280;67498;53.650;10.090;2023-07-31T00:29:16;100723.97;;;14.45
78225;BMP280;67498;53.650;10.090;2023-07-31T00:31:41;100705.38;;;14.39
78225;BMP280;67498;53.650;10.090;2023-07-31T00:34:07;100714.19;;;14.46
78225;BMP280;67498;53.650;10.090;2023-07-31T00:36:32;100698.34;;;14.36
78225;BMP280;67498;53.650;10.090;2023-07-31T00:38:57;100706.00;;;14.44
78225;BMP280;67498;53.650;10.090;2023-07-31T00:41:23;100712.81;;;14.41
78225;BMP280;67498;53.650;10.090;2023-07-31T00:43:48;100713.88;;;14.44
78225;BMP280;67498;53.650;10.090;2023-07-31T00:46:13;100706.13;;;14.40
78225;BMP280;67498;53.650;10.090;2023-07-31T00:48:39;100701.50;;;14.44
78225;BMP280;67498;53.650;10.090;2023-07-31T00:51:04;100703.69;;;14.46
78225;BMP280;67498;53.650;10.090;2023-07-31T00:53:30;100704.44;;;14.46
78225;BMP280;67498;53.650;10.090;2023-07-31T00:55:55;100697.28;;;14.47
78225;BMP280;67498;53.650;10.090;2023-07-31T00:58:21;100691.41;;;14.43
78225;BMP280;67498;53.650;10.090;2023-07-31T01:00:46;100695.50;;;14.44
78225;BMP280;67498;53.650;10.090;2023-07-31T01:03:12;100691.31;;;14.46
78225;BMP280;67498;53.650;10.090;2023-07-31T01:08:26;100692.88;;;14.44
78225;BMP280;67498;53.650;10.090;2023-07-31T01:11:28;100683.53;;;14.43
78225;BMP280;67498;53.650;10.090;2023-07-31T01:13:55;100685.00;;;14.44
78225;BMP280;67498;53.650;10.090;2023-07-31T01:16:20;100672.06;;;14.36
78225;BMP280;67498;53.650;10.090;2023-07-31T01:18:46;100653.59;;;14.27
78225;BMP280;67498;53.650;10.090;2023-07-31T01:21:33;100672.84;;;14.37
78225;BMP280;67498;53.650;10.090;2023-07-31T01:26:41;100646.56;;;14.24
78225;BMP280;67498;53.650;10.090;2023-07-31T01:29:32;100652.84;;;14.27
78225;BMP280;67498;53.650;10.090;2023-07-31T01:32:01;100661.47;;;14.27
78225;BMP280;67498;53.650;10.090;2023-07-31T01:34:28;100654.75;;;14.26
78225;BMP280;67498;53.650;10.090;2023-07-31T01:36:54;100657.81;;;14.25
78225;BMP280;67498;53.650;10.090;2023-07-31T01:39:20;100655.06;;;14.28
78225;BMP280;67498;53.650;10.090;2023-07-31T01:41:46;100658.84;;;14.27
78225;BMP280;67498;53.650;10.090;2023-07-31T01:44:11;100667.16;;;14.26
78225;BMP280;67498;53.650;10.090;2023-07-31T01:46:36;100661.47;;;14.27
78225;BMP280;67498;53.650;10.090;2023-07-31T01:49:02;100646.88;;;14.26
78225;BMP280;67498;53.650;10.090;2023-07-31T01:51:27;100645.41;;;14.25
78225;BMP280;67498;53.650;10.090;2023-07-31T01:53:52;100644.88;;;14.30
78225;BMP280;67498;53.650;10.090;2023-07-31T01:56:17;100645.06;;;14.36
78225;BMP280;67498;53.650;10.090;2023-07-31T01:58:43;100639.41;;;14.37
78225;BMP280;67498;53.650;10.090;2023-07-31T02:01:08;100637.81;;;14.40
78225;BMP280;67498;53.650;10.090;2023-07-31T02:03:33;100625.00;;;14.42
78225;BMP280;67498;53.650;10.090;2023-07-31T02:05:59;100624.66;;;14.53
78225;BMP280;67498;53.650;10.090;2023-07-31T02:08:24;100627.91;;;14.57
78225;BMP280;67498;53.650;10.090;2023-07-31T02:10:49;100618.13;;;14.57
78225;BMP280;67498;53.650;10.090;2023-07-31T02:13:15;100622.56;;;14.60
78225;BMP280;67498;53.650;10.090;2023-07-31T02:15:40;100622.41;;;14.64
78225;BMP280;67498;53.650;10.090;2023-07-31T02:18:05;100629.47;;;14.67
78225;BMP280;67498;53.650;10.090;2023-07-31T02:20:34;100624.50;;;14.69
78225;BMP280;67498;53.650;10.090;2023-07-31T02:22:59;100616.31;;;14.67
78225;BMP280;67498;53.650;10.090;2023-07-31T02:25:24;100624.41;;;14.73
78225;BMP280;67498;53.650;10.090;2023-07-31T02:27:49;100620.50;;;14.77
78225;BMP280;67498;53.650;10.090;2023-07-31T02:30:15;100610.28;;;14.79
78225;BMP280;67498;53.650;10.090;2023-07-31T02:32:40;100594.94;;;14.78
78225;BMP280;67498;53.650;10.090;2023-07-31T02:35:05;100600.69;;;14.85
78225;BMP280;67498;53.650;10.090;2023-07-31T02:37:31;100598.38;;;14.87
78225;BMP280;67498;53.650;10.090;2023-07-31T02:39:56;100588.84;;;14.81
78225;BMP280;67498;53.650;10.090;2023-07-31T02:42:21;100597.94;;;14.89
78225;BMP280;67498;53.650;10.090;2023-07-31T02:44:47;100601.63;;;14.92
78225;BMP280;67498;53.650;10.090;2023-07-31T02:47:12;100603.50;;;14.91
78225;BMP280;67498;53.650;10.090;2023-07-31T02:49:37;100591.22;;;14.88
78225;BMP280;67498;53.650;10.090;2023-07-31T02:52:03;100598.25;;;14.91
78225;BMP280;67498;53.650;10.090;2023-07-31T02:54:28;100581.44;;;14.88
78225;BMP280;67498;53.650;10.090;2023-07-31T02:56:53;100588.03;;;14.93
78225;BMP280;67498;53.650;10.090;2023-07-31T02:59:19;100581.34;;;14.92
78225;BMP280;67498;53.650;10.090;2023-07-31T03:01:45;100589.50;;;14.94
78225;BMP280;67498;53.650;10.090;2023-07-31T03:04:10;100585.41;;;14.93
78225;BMP280;67498;53.650;10.090;2023-07-31T03:06:35;100578.38;;;14.90
78225;BMP280;67498;53.650;10.090;2023-07-31T03:09:00;100580.28;;;14.89
78225;BMP280;67498;53.650;10.090;2023-07-31T03:11:26;100583.22;;;14.92
78225;BMP280;67498;53.650;10.090;2023-07-31T03:13:51;100589.81;;;14.96
78225;BMP280;67498;53.650;10.090;2023-07-31T03:16:17;100579.41;;;14.93
78225;BMP280;67498;53.650;10.090;2023-07-31T03:18:42;100579.28;;;14.96
78225;BMP280;67498;53.650;10.090;2023-07-31T03:21:07;100579.16;;;15.00
78225;BMP280;67498;53.650;10.090;2023-07-31T03:23:33;100571.00;;;14.98
78225;BMP280;67498;53.650;10.090;2023-07-31T03:26:00;100559.41;;;14.95
78225;BMP280;67498;53.650;10.090;2023-07-31T03:28:25;100566.91;;;14.97
78225;BMP280;67498;53.650;10.090;2023-07-31T03:30:51;100553.00;;;14.96
78225;BMP280;67498;53.650;10.090;2023-07-31T03:33:17;100558.44;;;15.02
78225;BMP280;67498;53.650;10.090;2023-07-31T03:35:42;100553.31;;;14.98
78225;BMP280;67498;53.650;10.090;2023-07-31T03:38:07;100560.19;;;15.05
78225;BMP280;67498;53.650;10.090;2023-07-31T03:40:33;100555.81;;;15.02
78225;BMP280;67498;53.650;10.090;2023-07-31T03:42:58;100565.78;;;15.07
78225;BMP280;67498;53.650;10.090;2023-07-31T03:45:23;100553.78;;;15.06
78225;BMP280;67498;53.650;10.090;2023-07-31T03:47:48;100551.91;;;15.06
78225;BMP280;67498;53.650;10.090;2023-07-31T03:50:14;100556.19;;;15.13
78225;BMP280;67498;53.650;10.090;2023-07-31T03:52:41;100552.78;;;15.12
78225;BMP280;67498;53.650;10.090;2023-07-31T03:55:06;100554.84;;;15.18
78225;BMP280;67498;53.650;10.090;2023-07-31T03:57:31;100547.13;;;15.14
78225;BMP280;67498;53.650;10.090;2023-07-31T03:59:57;100561.59;;;15.19
78225;BMP280;67498;53.650;10.090;2023-07-31T04:02:23;100557.06;;;15.19
78225;BMP280;67498;53.650;10.090;2023-07-31T04:04:48;100561.94;;;15.21
78225;BMP280;67498;53.650;10.090;2023-07-31T04:07:13;100564.09;;;15.22
78225;BMP280;67498;53.650;10.090;2023-07-31T04:09:38;100549.19;;;15.19
78225;BMP280;67498;53.650;10.090;2023-07-31T04:12:04;100560.63;;;15.25
78225;BMP280;67498;53.650;10.090;2023-07-31T04:14:29;100559.88;;;15.25
78225;BMP280;67498;53.650;10.090;2023-07-31T04:16:54;100543.63;;;15.17
78225;BMP280;67498;53.650;10.090;2023-07-31T04:19:20;100551.25;;;15.24
78225;BMP280;67498;53.650;10.090;2023-07-31T04:21:45;100541.03;;;15.26
78225;BMP280;67498;53.650;10.090;2023-07-31T04:24:10;100547.22;;;15.32
78225;BMP280;67498;53.650;10.090;2023-07-31T04:26:35;100548.66;;;15.33
78225;BMP280;67498;53.650;10.090;2023-07-31T04:29:01;100537.44;;;15.33
78225;BMP280;67498;53.650;10.090;2023-07-31T04:31:26;100532.88;;;15.33
78225;BMP280;67498;53.650;10.090;2023-07-31T04:33:51;100532.25;;;15.29
78225;BMP280;67498;53.650;10.090;2023-07-31T04:36:16;100527.75;;;15.30
78225;BMP280;67498;53.650;10.090;2023-07-31T04:38:42;100539.63;;;15.34
78225;BMP280;67498;53.650;10.090;2023-07-31T04:41:07;100533.19;;;15.35
78225;BMP280;67498;53.650;10.090;2023-07-31T04:43:32;100531.44;;;15.32
78225;BMP280;67498;53.650;10.090;2023-07-31T04:45:57;100539.91;;;15.36
78225;BMP280;67498;53.650;10.090;2023-07-31T04:48:23;100525.41;;;15.32
78225;BMP280;67498;53.650;10.090;2023-07-31T04:50:48;100539.50;;;15.38
78225;BMP280;67498;53.650;10.090;2023-07-31T04:53:14;100537.28;;;15.36
78225;BMP280;67498;53.650;10.090;2023-07-31T04:55:39;100535.50;;;15.33
78225;BMP280;67498;53.650;10.090;2023-07-31T04:58:04;100537.59;;;15.38
78225;BMP280;67498;53.650;10.090;2023-07-31T05:00:29;100535.97;;;15.41
78225;BMP280;67498;53.650;10.090;2023-07-31T05:02:55;100522.97;;;15.37
78225;BMP280;67498;53.650;10.090;2023-07-31T05:05:20;100534.38;;;15.44
78225;BMP280;67498;53.650;10.090;2023-07-31T05:07:45;100522.69;;;15.45
78225;BMP280;67498;53.650;10.090;2023-07-31T05:10:11;100520.50;;;15.43
78225;BMP280;67498;53.650;10.090;2023-07-31T05:12:36;100518.31;;;15.42
78225;BMP280;67498;53.650;10.090;2023-07-31T05:15:01;100525.63;;;15.47
78225;BMP280;67498;53.650;10.090;2023-07-31T05:17:27;100524.31;;;15.42
78225;BMP280;67498;53.650;10.090;2023-07-31T05:19:52;100527.09;;;15.48
78225;BMP280;67498;53.650;10.090;2023-07-31T05:22:17;100519.50;;;15.50
78225;BMP280;67498;53.650;10.090;2023-07-31T05:24:43;100513.94;;;15.48
78225;BMP280;67498;53.650;10.090;2023-07-31T05:27:08;100509.84;;;15.47
78225;BMP280;67498;53.650;10.090;2023-07-31T05:29:34;100509.09;;;15.46
78225;BMP280;67498;53.650;10.090;2023-07-31T05:32:00;100520.94;;;15.51
78225;BMP280;67498;53.650;10.090;2023-07-31T05:34:25;100516.00;;;15.53
78225;BMP280;67498;53.650;10.090;2023-07-31T05:36:50;100508.25;;;15.49
78225;BMP280;67498;53.650;10.090;2023-07-31T05:39:15;100508.41;;;15.55
78225;BMP280;67498;53.650;10.090;2023-07-31T05:41:41;100517.75;;;15.56
78225;BMP280;67498;53.650;10.090;2023-07-31T05:44:06;100509.41;;;15.57
78225;BMP280;67498;53.650;10.090;2023-07-31T05:46:31;100495.97;;;15.55
78225;BMP280;67498;53.650;10.090;2023-07-31T05:48:57;100504.75;;;15.61
78225;BMP280;67498;53.650;10.090;2023-07-31T05:51:24;100496.25;;;15.57
78225;BMP280;67498;53.650;10.090;2023-07-31T05:53:50;100508.13;;;15.62
78225;BMP280;67498;53.650;10.090;2023-07-31T05:56:15;100494.94;;;15.53
78225;BMP280;67498;53.650;10.090;2023-07-31T05:58:40;100497.16;;;15.63
78225;BMP280;67498;53.650;10.090;2023-07-31T06:01:05;100496.56;;;15.59
78225;BMP280;67498;53.650;10.090;2023-07-31T06:03:31;100502.28;;;15.67
78225;BMP280;67498;53.650;10.090;2023-07-31T06:05:56;100501.00;;;15.72
78225;BMP280;67498;53.650;10.090;2023-07-31T06:08:21;100492.78;;;15.70
78225;BMP280;67498;53.650;10.090;2023-07-31T06:10:46;100488.84;;;15.74
78225;BMP280;67498;53.650;10.090;2023-07-31T06:13:12;100481.84;;;15.71
78225;BMP280;67498;53.650;10.090;2023-07-31T06:15:37;100487.69;;;15.75
78225;BMP280;67498;53.650;10.090;2023-07-31T06:18:02;100489.44;;;15.78
78225;BMP280;67498;53.650;10.090;2023-07-31T06:20:28;100480.66;;;15.81
78225;BMP280;67498;53.650;10.090;2023-07-31T06:22:53;100489.88;;;15.86
78225;BMP280;67498;53.650;10.090;2023-07-31T06:25:19;100482.56;;;15.81
78225;BMP280;67498;53.650;10.090;2023-07-31T06:27:44;100491.66;;;15.89
78225;BMP280;67498;53.650;10.090;2023-07-31T06:30:10;100475.97;;;15.85
78225;BMP280;67498;53.650;10.090;2023-07-31T06:32:35;100495.28;;;15.91
78225;BMP280;67498;53.650;10.090;2023-07-31T06:35:01;100498.22;;;15.94
78225;BMP280;67498;53.650;10.090;2023-07-31T06:37:26;100500.00;;;15.97
78225;BMP280;67498;53.650;10.090;2023-07-31T06:39:51;100490.31;;;15.94
78225;BMP280;67498;53.650;10.090;2023-07-31T06:42:16;100505.25;;;15.97
78225;BMP280;67498;53.650;10.090;2023-07-31T06:44:42;100489.47;;;15.97
78225;BMP280;67498;53.650;10.090;2023-07-31T06:47:07;100499.56;;;15.98
78225;BMP280;67498;53.650;10.090;2023-07-31T06:49:32;100494.28;;;15.98
78225;BMP280;67498;53.650;10.090;2023-07-31T06:51:58;100481.56;;;15.97
78225;BMP280;67498;53.650;10.090;2023-07-31T06:54:23;100489.91;;;16.04
78225;BMP280;67498;53.650;10.090;2023-07-31T06:56:48;100490.78;;;16.10
78225;BMP280;67498;53.650;10.090;2023-07-31T06:59:13;100487.88;;;16.08
78225;BMP280;67498;53.650;10.090;2023-07-31T07:01:39;100480.84;;;16.05
78225;BMP280;67498;53.650;10.090;2023-07-31T07:04:04;100492.84;;;16.15
78225;BMP280;67498;53.650;10.090;2023-07-31T07:06:29;100498.69;;;16.20
78225;BMP280;67498;53.650;10.090;2023-07-31T07:08:54;100495.31;;;16.19
78225;BMP280;67498;53.650;10.090;2023-07-31T07:11:20;100484.78;;;16.10
78225;BMP280;67498;53.650;10.090;2023-07-31T07:13:45;100500.75;;;16.15
78225;BMP280;67498;53.650;10.090;2023-07-31T07:16:10;100496.22;;;16.16
78225;BMP280;67498;53.650;10.090;2023-07-31T07:18:35;100502.47;;;16.19
78225;BMP280;67498;53.650;10.090;2023-07-31T07:21:01;100492.84;;;16.15
78225;BMP280;67498;53.650;10.090;2023-07-31T07:23:27;100496.47;;;16.18
78225;BMP280;67498;53.650;10.090;2023-07-31T07:25:52;100498.38;;;16.17
78225;BMP280;67498;53.650;10.090;2023-07-31T07:28:18;100495.00;;;16.17
78225;BMP280;67498;53.650;10.090;2023-07-31T07:30:43;100498.38;;;16.17
78225;BMP280;67498;53.650;10.090;2023-07-31T07:33:08;100499.13;;;16.18
78225;BMP280;67498;53.650;10.090;2023-07-31T07:35:34;100491.94;;;16.19
78225;BMP280;67498;53.650;10.090;2023-07-31T07:38:00;100486.97;;;16.21
78225;BMP280;67498;53.650;10.090;2023-07-31T07:40:26;100488.88;;;16.20
78225;BMP280;67498;53.650;10.090;2023-07-31T07:42:51;100489.72;;;16.17
78225;BMP280;67498;53.650;10.090;2023-07-31T07:45:16;100482.72;;;16.14
78225;BMP280;67498;53.650;10.090;2023-07-31T07:47:41;100494.72;;;16.15
78225;BMP280;67498;53.650;10.090;2023-07-31T07:50:08;100484.94;;;16.15
78225;BMP280;67498;53.650;10.090;2023-07-31T07:52:33;100464.88;;;16.09
78225;BMP280;67498;53.650;10.090;2023-07-31T07:54:58;100472.19;;;16.14
78225;BMP280;67498;53.650;10.090;2023-07-31T07:57:25;100479.09;;;16.21
78225;BMP280;67498;53.650;10.090;2023-07-31T07:59:50;100488.13;;;16.20
78225;BMP280;67498;53.650;10.090;2023-07-31T08:02:15;100483.03;;;16.16
78225;BMP280;67498;53.650;10.090;2023-07-31T08:04:41;100477.19;;;16.21
78225;BMP280;67498;53.650;10.090;2023-07-31T08:07:06;100472.31;;;16.20
78225;BMP280;67498;53.650;10.090;2023-07-31T08:09:31;100469.41;;;16.27
78225;BMP280;67498;53.650;10.090;2023-07-31T08:11:57;100454.91;;;16.22
78225;BMP280;67498;53.650;10.090;2023-07-31T08:14:27;100459.03;;;16.32
78225;BMP280;67498;53.650;10.090;2023-07-31T08:16:52;100463.09;;;16.43
78225;BMP280;67498;53.650;10.090;2023-07-31T08:19:17;100465.41;;;16.50
78225;BMP280;67498;53.650;10.090;2023-07-31T08:21:43;100465.25;;;16.53
78225;BMP280;67498;53.650;10.090;2023-07-31T08:24:08;100456.63;;;16.53
78225;BMP280;67498;53.650;10.090;2023-07-31T08:26:33;100445.00;;;16.59
78225;BMP280;67498;53.650;10.090;2023-07-31T08:28:58;100434.47;;;16.59
78225;BMP280;67498;53.650;10.090;2023-07-31T08:31:24;100429.50;;;16.61
78225;BMP280;67498;53.650;10.090;2023-07-31T08:33:49;100437.22;;;16.74
78225;BMP280;67498;53.650;10.090;2023-07-31T08:36:14;100433.69;;;16.77
78225;BMP280;67498;53.650;10.090;2023-07-31T08:38:40;100427.38;;;16.84
78225;BMP280;67498;53.650;10.090;2023-07-31T08:41:05;100423.38;;;16.88
78225;BMP280;67498;53.650;10.090;2023-07-31T08:43:31;100419.44;;;16.84
78225;BMP280;67498;53.650;10.090;2023-07-31T08:45:57;100424.72;;;16.84
78225;BMP280;67498;53.650;10.090;2023-07-31T08:48:23;100431.47;;;16.85
78225;BMP280;67498;53.650;10.090;2023-07-31T08:50:49;100425.19;;;16.82
78225;BMP280;67498;53.650;10.090;2023-07-31T08:53:15;100426.06;;;16.79
78225;BMP280;67498;53.650;10.090;2023-07-31T08:55:41;100442.03;;;16.85
78225;BMP280;67498;53.650;10.090;2023-07-31T08:58:07;100437.75;;;16.87
78225;BMP280;67498;53.650;10.090;2023-07-31T09:00:33;100439.91;;;16.98
78225;BMP280;67498;53.650;10.090;2023-07-31T09:03:01;100434.75;;;17.04
78225;BMP280;67498;53.650;10.090;2023-07-31T09:05:30;100429.59;;;17.09
78225;BMP280;67498;53.650;10.090;2023-07-31T09:07:56;100415.06;;;17.14
78225;BMP280;67498;53.650;10.090;2023-07-31T09:10:22;100413.56;;;17.13
78225;BMP280;67498;53.650;10.090;2023-07-31T09:12:48;100422.63;;;17.21
78225;BMP280;67498;53.650;10.090;2023-07-31T09:15:14;100417.63;;;17.23
78225;BMP280;67498;53.650;10.090;2023-07-31T09:17:39;100427.38;;;17.32
78225;BMP280;67498;53.650;10.090;2023-07-31T09:20:21;100426.22;;;17.33
78225;BMP280;67498;53.650;10.090;2023-07-31T09:22:48;100420.03;;;17.36
78225;BMP280;67498;53.650;10.090;2023-07-31T09:25:25;100426.75;;;17.37
78225;BMP280;67498;53.650;10.090;2023-07-31T09:27:54;100407.03;;;17.32
78225;BMP280;67498;53.650;10.090;2023-07-31T09:30:20;100416.94;;;17.37
78225;BMP280;67498;53.650;10.090;2023-07-31T09:32:46;100404.75;;;17.25
78225;BMP280;67498;53.650;10.090;2023-07-31T09:35:27;100411.91;;;17.25
78225;BMP280;67498;53.650;10.090;2023-07-31T09:37:53;100411.16;;;17.24
78225;BMP280;67498;53.650;10.090;2023-07-31T09:42:58;100387.66;;;17.11
78225;BMP280;67498;53.650;10.090;2023-07-31T09:45:24;100392.94;;;17.11
78225;BMP280;67498;53.650;10.090;2023-07-31T09:47:50;100385.31;;;17.13
78225;BMP280;67498;53.650;10.090;2023-07-31T09:50:15;100394.94;;;17.16
78225;BMP280;67498;53.650;10.090;2023-07-31T09:52:43;100379.56;;;17.15
78225;BMP280;67498;53.650;10.090;2023-07-31T09:55:09;100369.75;;;17.15
78225;BMP280;67498;53.650;10.090;2023-07-31T09:57:40;100378.22;;;17.20
78225;BMP280;67498;53.650;10.090;2023-07-31T10:00:07;100371.50;;;17.19
78225;BMP280;67498;53.650;10.090;2023-07-31T10:02:34;100365.75;;;17.20
78225;BMP280;67498;53.650;10.090;2023-07-31T10:05:02;100354.66;;;17.16
78225;BMP280;67498;53.650;10.090;2023-07-31T10:07:30;100367.66;;;17.20
78225;BMP280;67498;53.650;10.090;2023-07-31T10:09:57;100359.66;;;17.14
78225;BMP280;67498;53.650;10.090;2023-07-31T10:12:26;100364.19;;;17.13
78225;BMP280;67498;53.650;10.090;2023-07-31T10:14:54;100380.84;;;17.20
78225;BMP280;67498;53.650;10.090;2023-07-31T10:17:21;100372.38;;;17.15
78225;BMP280;67498;53.650;10.090;2023-07-31T10:19:47;100370.75;;;17.18
78225;BMP280;67498;53.650;10.090;2023-07-31T10:22:14;100357.75;;;17.14
78225;BMP280;67498;53.650;10.090;2023-07-31T10:24:39;100356.38;;;17.19
78225;BMP280;67498;53.650;10.090;2023-07-31T10:27:07;100354.31;;;17.23
78225;BMP280;67498;53.650;10.090;2023-07-31T10:29:32;100360.41;;;17.29
78225;BMP280;67498;53.650;10.090;2023-07-31T10:31:58;100358.97;;;17.28
78225;BMP280;67498;53.650;10.090;2023-07-31T10:34:24;100355.59;;;17.28
78225;BMP280;67498;53.650;10.090;2023-07-31T10:36:50;100344.38;;;17.18
78225;BMP280;67498;53.650;10.090;2023-07-31T10:39:34;100347.53;;;17.22
78225;BMP280;67498;53.650;10.090;2023-07-31T10:42:12;100337.47;;;17.21
78225;BMP280;67498;53.650;10.090;2023-07-31T10:44:38;100340.03;;;17.30
78225;BMP280;67498;53.650;10.090;2023-07-31T10:47:04;100340.59;;;17.34
78225;BMP280;67498;53.650;10.090;2023-07-31T10:49:29;100342.06;;;17.35
78225;BMP280;67498;53.650;10.090;2023-07-31T10:51:57;100337.38;;;17.30
78225;BMP280;67498;53.650;10.090;2023-07-31T10:54:22;100351.59;;;17.32
78225;BMP280;67498;53.650;10.090;2023-07-31T10:56:50;100340.03;;;17.30
78225;BMP280;67498;53.650;10.090;2023-07-31T10:59:15;100340.34;;;17.23
78225;BMP280;67498;53.650;10.090;2023-07-31T11:01:56;100323.53;;;17.20
78225;BMP280;67498;53.650;10.090;2023-07-31T11:04:28;100332.63;;;17.19
78225;BMP280;67498;53.650;10.090;2023-07-31T11:07:01;100326.94;;;17.21
78225;BMP280;67498;53.650;10.090;2023-07-31T11:09:29;100321.34;;;17.19
78225;BMP280;67498;53.650;10.090;2023-07-31T11:11:56;100328.81;;;17.20
78225;BMP280;67498;53.650;10.090;2023-07-31T11:14:21;100342.91;;;17.17
78225;BMP280;67498;53.650;10.090;2023-07-31T11:16:49;100338.25;;;17.12
78225;BMP280;67498;53.650;10.090;2023-07-31T11:19:15;100327.03;;;17.02
78225;BMP280;67498;53.650;10.090;2023-07-31T11:21:45;100313.00;;;16.96
78225;BMP280;67498;53.650;10.090;2023-07-31T11:24:12;100319.41;;;17.04
78225;BMP280;67498;53.650;10.090;2023-07-31T11:26:37;100324.22;;;17.06
78225;BMP280;67498;53.650;10.090;2023-07-31T11:29:10;100311.31;;;17.08
78225;BMP280;67498;53.650;10.090;2023-07-31T11:31:42;100312.22;;;17.05
78225;BMP280;67498;53.650;10.090;2023-07-31T11:34:07;100316.28;;;17.06
78225;BMP280;67498;53.650;10.090;2023-07-31T11:36:32;100318.22;;;17.05
78225;BMP280;67498;53.650;10.090;2023-07-31T11:39:05;100302.31;;;17.00
78225;BMP280;67498;53.650;10.090;2023-07-31T11:41:30;100319.69;;;17.06
78225;BMP280;67498;53.650;10.090;2023-07-31T11:43:59;100303.59;;;17.04
78225;BMP280;67498;53.650;10.090;2023-07-31T11:46:25;100312.03;;;17.08
78225;BMP280;67498;53.650;10.090;2023-07-31T11:48:50;100308.38;;;17.06
78225;BMP280;67498;53.650;10.090;2023-07-31T11:51:16;100306.09;;;16.99
78225;BMP280;67498;53.650;10.090;2023-07-31T11:53:48;100311.50;;;17.04
78225;BMP280;67498;53.650;10.090;2023-07-31T11:56:17;100304.66;;;16.98
78225;BMP280;67498;53.650;10.090;2023-07-31T11:58:44;100310.22;;;17.00
78225;BMP280;67498;53.650;10.090;2023-07-31T12:01:11;100313.59;;;17.00
78225;BMP280;67498;53.650;10.090;2023-07-31T12:03:38;100303.38;;;16.93
78225;BMP280;67498;53.650;10.090;2023-07-31T12:06:03;100306.91;;;16.90
78225;BMP280;67498;53.650;10.090;2023-07-31T12:08:29;100306.91;;;16.90
78225;BMP280;67498;53.650;10.090;2023-07-31T12:10:54;100308.53;;;16.87
78225;BMP280;67498;53.650;10.090;2023-07-31T12:13:26;100318.53;;;16.83
78225;BMP280;67498;53.650;10.090;2023-07-31T12:15:56;100303.66;;;16.71
78225;BMP280;67498;53.650;10.090;2023-07-31T12:18:23;100295.56;;;16.75
78225;BMP280;67498;53.650;10.090;2023-07-31T12:20:54;100297.13;;;16.81
78225;BMP280;67498;53.650;10.090;2023-07-31T12:23:31;100296.06;;;16.88
78225;BMP280;67498;53.650;10.090;2023-07-31T12:28:35;100287.16;;;16.85
78225;BMP280;67498;53.650;10.090;2023-07-31T12:31:01;100290.97;;;16.84
78225;BMP280;67498;53.650;10.090;2023-07-31T12:33:34;100291.97;;;16.87
78225;BMP280;67498;53.650;10.090;2023-07-31T12:36:01;100281.59;;;16.83
78225;BMP280;67498;53.650;10.090;2023-07-31T12:38:27;100284.50;;;16.85
78225;BMP280;67498;53.650;10.090;2023-07-31T12:40:52;100274.69;;;16.86
78225;BMP280;67498;53.650;10.090;2023-07-31T12:43:17;100274.25;;;16.87
78225;BMP280;67498;53.650;10.090;2023-07-31T12:45:42;100268.22;;;16.87
78225;BMP280;67498;53.650;10.090;2023-07-31T12:48:08;100263.16;;;16.83
78225;BMP280;67498;53.650;10.090;2023-07-31T12:50:33;100265.94;;;16.80
78225;BMP280;67498;53.650;10.090;2023-07-31T12:53:01;100266.69;;;16.80
78225;BMP280;67498;53.650;10.090;2023-07-31T12:55:28;100261.88;;;16.79
78225;BMP280;67498;53.650;10.090;2023-07-31T12:57:53;100260.41;;;16.78
78225;BMP280;67498;53.650;10.090;2023-07-31T13:00:18;100242.84;;;16.75
78225;BMP280;67498;53.650;10.090;2023-07-31T13:02:44;100246.47;;;16.77
78225;BMP280;67498;53.650;10.090;2023-07-31T13:05:09;100241.50;;;16.79
78225;BMP280;67498;53.650;10.090;2023-07-31T13:07:34;100238.31;;;16.75
78225;BMP280;67498;53.650;10.090;2023-07-31T13:10:00;100252.66;;;16.74
78225;BMP280;67498;53.650;10.090;2023-07-31T13:12:25;100250.19;;;16.71
78225;BMP280;67498;53.650;10.090;2023-07-31T13:14:50;100236.63;;;16.63
78225;BMP280;67498;53.650;10.090;2023-07-31T13:17:16;100222.91;;;16.59
78225;BMP280;67498;53.650;10.090;2023-07-31T13:19:41;100232.81;;;16.64
78225;BMP280;67498;53.650;10.090;2023-07-31T13:22:07;100216.88;;;16.58
78225;BMP280;67498;53.650;10.090;2023-07-31T13:24:32;100228.97;;;16.65
78225;BMP280;67498;53.650;10.090;2023-07-31T13:26:58;100226.81;;;16.63
78225;BMP280;67498;53.650;10.090;2023-07-31T13:29:23;100222.53;;;16.66
78225;BMP280;67498;53.650;10.090;2023-07-31T13:31:49;100221.75;;;16.75
78225;BMP280;67498;53.650;10.090;2023-07-31T13:34:14;100230.38;;;16.75
78225;BMP280;67498;53.650;10.090;2023-07-31T13:36:40;100222.31;;;16.79
78225;BMP280;67498;53.650;10.090;2023-07-31T13:39:05;100226.00;;;16.72
78225;BMP280;67498;53.650;10.090;2023-07-31T13:41:30;100219.44;;;16.67
78225;BMP280;67498;53.650;10.090;2023-07-31T13:43:55;100203.53;;;16.62
78225;BMP280;67498;53.650;10.090;2023-07-31T13:46:21;100207.88;;;16.65
78225;BMP280;67498;53.650;10.090;2023-07-31T13:48:46;100213.66;;;16.63